Portada
METAR-TAF:

METAR-TAF

Aeroports :

Bagdad, Iraq

latitud: 33-15-45N, longitud: 44-14-04E, altitud: 35 m

Observació

L'informe es va fer fa 30 minuts, a les 12:00 UTC
Vent 11 kt del Nord-Oest
Temperatura 15°C
Humitat 72%
Pressió 1015 hPa
Visibilitat 10 km o més
Escasses núvols a una alçada de 3300 ft

METAR: ORBI 071200Z 31011KT 9999 FEW033 15/10 Q1015 NOSIG

Hora: 15:30 (12:30 UTC)

Pronòstic

L'informe es va fer fa 2 hores i 30 minuts, a les 10:00 UTC
Pronòstic vàlid del 07 a les 12 UTC al 08 a les 12 UTC
Vent 10 kt del Oest/Nord-Oest
Visibilitat: 7000 m
Núvols disperses a una alçada de 4000 ft
Cel ennuvolat a una alçada de 6000 ft
Temporalment
l' 07 a les 15 UTC al 07 a les 21 UTC
xàfecs de pluja

TAF: ORBI 071000Z 0712/0812 30010KT 7000 SCT040 BKN060 TEMPO 0715/0721 SHRA

Observacions i pronòstics meteorològics de més de 4000 aeroports (METAR i TAF).

Les estacions disponibles són els punts grocs i vermells al mapa.

Posi el ratolí al punt desitjat per veure el nom de l'estació.

Feu clic per veure les observacions i els pronòstics meteorològics.

Per canviar el mapa: feu clic els botons verds amb una creu de color negre per apropar; al botó verd amb un guió per allunyar la imatge; o en les fletxes verdes per a mapes adjacents.


METAR-TAF: